createdAt,value
2023-11-24T00:01:09.166Z,5.32
2023-11-24T00:03:42.103Z,5.34
2023-11-24T00:06:13.593Z,5.32
2023-11-24T00:08:42.644Z,5.34
2023-11-24T00:11:11.618Z,5.29
2023-11-24T00:13:40.606Z,5.34
2023-11-24T00:16:12.578Z,5.35
2023-11-24T00:18:41.861Z,5.37
2023-11-24T00:21:12.402Z,5.42
2023-11-24T00:23:42.398Z,5.42
2023-11-24T00:26:12.866Z,5.46
2023-11-24T00:28:55.195Z,5.45
2023-11-24T00:31:27.184Z,5.49
2023-11-24T00:33:57.385Z,5.49
2023-11-24T00:36:26.852Z,5.49
2023-11-24T00:38:57.253Z,5.52
2023-11-24T00:41:28.700Z,5.52
2023-11-24T00:43:58.589Z,5.53
2023-11-24T00:46:27.668Z,5.56
2023-11-24T00:48:57.688Z,5.55
2023-11-24T00:51:27.915Z,5.56
2023-11-24T00:53:57.465Z,5.56
2023-11-24T00:56:26.389Z,5.52
2023-11-24T00:58:55.933Z,5.53
2023-11-24T01:01:25.964Z,5.52
2023-11-24T01:03:55.417Z,5.53
2023-11-24T01:06:26.127Z,5.46
2023-11-24T01:08:55.675Z,5.45
2023-11-24T01:11:25.935Z,5.42
2023-11-24T01:13:55.631Z,5.41
2023-11-24T01:16:25.436Z,5.35
2023-11-24T01:18:55.002Z,5.34
2023-11-24T01:21:27.167Z,5.28
2023-11-24T01:24:02.538Z,5.22
2023-11-24T01:26:34.995Z,5.21
2023-11-24T01:29:04.342Z,5.17
2023-11-24T01:31:33.767Z,5.20
2023-11-24T01:34:03.218Z,5.21
2023-11-24T01:36:32.506Z,5.21
2023-11-24T01:39:08.611Z,5.24
2023-11-24T01:41:40.991Z,5.24
2023-11-24T01:44:12.496Z,5.27
2023-11-24T01:46:41.561Z,5.27
2023-11-24T01:49:14.060Z,5.31
2023-11-24T01:51:46.093Z,5.31
2023-11-24T01:54:17.893Z,5.29
2023-11-24T01:56:48.383Z,5.31
2023-11-24T01:59:19.458Z,5.28
2023-11-24T02:01:49.790Z,5.32
2023-11-24T02:04:22.923Z,5.31
2023-11-24T02:06:55.461Z,5.29
2023-11-24T02:09:26.517Z,5.29
2023-11-24T02:11:55.834Z,5.28
2023-11-24T02:14:27.270Z,5.31
2023-11-24T02:16:56.907Z,5.22
2023-11-24T02:19:26.169Z,5.17
2023-11-24T02:21:55.289Z,5.04
2023-11-24T02:24:24.621Z,4.94
2023-11-24T02:26:53.711Z,4.93
2023-11-24T02:29:23.997Z,4.84
2023-11-24T02:32:14.589Z,4.83
2023-11-24T02:34:43.508Z,4.76
2023-11-24T02:37:12.727Z,4.69
2023-11-24T02:39:42.112Z,4.63
2023-11-24T02:42:11.469Z,4.52
2023-11-24T02:44:40.710Z,4.47
2023-11-24T02:47:10.300Z,4.39
2023-11-24T02:49:40.342Z,4.38
2023-11-24T02:52:10.626Z,4.31
2023-11-24T02:54:39.792Z,4.28
2023-11-24T02:57:10.125Z,4.21
2023-11-24T02:59:39.254Z,4.21
2023-11-24T03:02:09.140Z,4.13
2023-11-24T03:04:38.924Z,4.13
2023-11-24T03:07:09.921Z,4.09
2023-11-24T03:09:38.971Z,4.04
2023-11-24T03:12:09.008Z,4.00
2023-11-24T03:14:42.085Z,4.00
2023-11-24T03:17:11.620Z,4.01
2023-11-24T03:19:40.779Z,3.99
2023-11-24T03:22:10.427Z,4.00
2023-11-24T03:24:39.799Z,4.01
2023-11-24T03:27:09.847Z,4.01
2023-11-24T03:29:39.006Z,4.06
2023-11-24T03:32:08.210Z,4.09
2023-11-24T03:34:37.568Z,4.11
2023-11-24T03:37:06.891Z,4.17
2023-11-24T03:39:36.271Z,4.18
2023-11-24T03:42:05.789Z,4.21
2023-11-24T03:44:35.112Z,4.21
2023-11-24T03:47:04.817Z,4.18
2023-11-24T03:49:34.046Z,4.20
2023-11-24T03:52:03.275Z,4.17
2023-11-24T03:54:32.481Z,4.18
2023-11-24T03:57:01.786Z,4.17
2023-11-24T03:59:30.770Z,4.16
2023-11-24T04:01:59.801Z,4.18
2023-11-24T04:04:28.929Z,4.18
2023-11-24T04:06:58.937Z,4.24
2023-11-24T04:09:28.388Z,4.28
2023-11-24T04:12:00.235Z,4.27
2023-11-24T04:14:30.035Z,4.29
2023-11-24T04:17:01.316Z,4.34
2023-11-24T04:19:30.638Z,4.35
2023-11-24T04:22:02.044Z,4.31
2023-11-24T04:24:31.270Z,4.22
2023-11-24T04:27:00.380Z,4.17
2023-11-24T04:29:29.490Z,4.13
2023-11-24T04:31:58.476Z,4.09
2023-11-24T04:34:27.793Z,4.06
2023-11-24T04:36:57.585Z,4.03
2023-11-24T04:39:26.803Z,4.01
2023-11-24T04:41:55.907Z,3.94
2023-11-24T04:44:25.023Z,3.90
2023-11-24T04:46:54.038Z,3.86
2023-11-24T04:49:22.971Z,3.80
2023-11-24T04:51:52.142Z,3.75
2023-11-24T04:54:22.112Z,3.72
2023-11-24T04:56:51.150Z,3.69
2023-11-24T04:59:24.442Z,3.65
2023-11-24T05:01:53.938Z,3.61
2023-11-24T05:04:23.226Z,3.58
2023-11-24T05:06:52.452Z,3.57
2023-11-24T05:09:21.726Z,3.55
2023-11-24T05:11:51.293Z,3.50
2023-11-24T05:14:23.753Z,3.48
2023-11-24T05:16:53.304Z,3.48
2023-11-24T05:19:22.325Z,3.44
2023-11-24T05:21:51.400Z,3.47
2023-11-24T05:24:22.722Z,3.48
2023-11-24T05:26:53.017Z,3.50
2023-11-24T05:29:22.881Z,3.48
2023-11-24T05:31:52.179Z,3.51
2023-11-24T05:34:25.758Z,3.51
2023-11-24T05:36:54.793Z,3.52
2023-11-24T05:39:23.947Z,3.52
2023-11-24T05:41:52.880Z,3.52
2023-11-24T05:44:22.647Z,3.54
2023-11-24T05:46:51.854Z,3.52
2023-11-24T05:49:22.651Z,3.55
2023-11-24T05:51:52.724Z,3.58
2023-11-24T05:54:22.774Z,3.55
2023-11-24T05:56:52.087Z,3.55
2023-11-24T05:59:22.901Z,3.51
2023-11-24T06:01:52.324Z,3.50
2023-11-24T06:04:23.456Z,3.48
2023-11-24T06:06:53.537Z,3.45
2023-11-24T06:09:24.408Z,3.43
2023-11-24T06:11:54.407Z,3.41
2023-11-24T06:14:23.471Z,3.35
2023-11-24T06:16:53.003Z,3.32
2023-11-24T06:19:23.413Z,3.31
2023-11-24T06:21:52.389Z,3.30
2023-11-24T06:24:22.164Z,3.31
2023-11-24T06:26:51.189Z,3.28
2023-11-24T06:29:23.269Z,3.30
2023-11-24T06:31:52.425Z,3.32
2023-11-24T06:34:23.568Z,3.35
2023-11-24T06:36:53.738Z,3.37
2023-11-24T06:39:22.833Z,3.40
2023-11-24T06:41:55.039Z,3.41
2023-11-24T06:44:26.711Z,3.43
2023-11-24T06:46:55.930Z,3.45
2023-11-24T06:49:24.739Z,3.45
2023-11-24T06:51:53.870Z,3.48
2023-11-24T06:54:22.741Z,3.48
2023-11-24T06:56:51.716Z,3.48
2023-11-24T06:59:23.035Z,3.50
2023-11-24T07:01:54.121Z,3.51
2023-11-24T07:04:24.253Z,3.52
2023-11-24T07:06:53.524Z,3.55
2023-11-24T07:09:22.780Z,3.58
2023-11-24T07:11:52.319Z,3.61
2023-11-24T07:14:22.048Z,3.63
2023-11-24T07:16:51.869Z,3.65
2023-11-24T07:19:22.707Z,3.69
2023-11-24T07:21:51.823Z,3.71
2023-11-24T07:24:22.045Z,3.75
2023-11-24T07:26:54.330Z,3.76
2023-11-24T07:29:23.545Z,3.78
2023-11-24T07:31:52.900Z,3.80
2023-11-24T07:34:22.056Z,3.82
2023-11-24T07:36:51.170Z,3.83
2023-11-24T07:39:22.025Z,3.82
2023-11-24T07:41:53.825Z,3.83
2023-11-24T07:44:24.057Z,3.86
2023-11-24T07:46:53.391Z,3.85
2023-11-24T07:49:22.583Z,3.85
2023-11-24T07:51:52.340Z,3.86
2023-11-24T07:54:22.776Z,3.89
2023-11-24T07:56:51.660Z,3.89
2023-11-24T07:59:21.637Z,3.92
2023-11-24T08:01:51.009Z,3.93
2023-11-24T08:04:23.305Z,3.99
2023-11-24T08:06:56.728Z,4.03
2023-11-24T08:09:27.000Z,4.06
2023-11-24T08:11:56.098Z,4.09
2023-11-24T08:14:27.049Z,4.07
2023-11-24T08:16:56.417Z,4.06
2023-11-24T08:19:26.932Z,4.06
2023-11-24T08:21:56.223Z,4.06
2023-11-24T08:24:25.496Z,4.04
2023-11-24T08:26:55.703Z,4.04
2023-11-24T08:29:25.044Z,4.07
2023-11-24T08:31:54.513Z,4.06
2023-11-24T08:34:24.141Z,4.07
2023-11-24T08:36:53.889Z,4.09
2023-11-24T08:39:23.425Z,4.10
2023-11-24T08:41:54.234Z,4.11
2023-11-24T08:44:25.248Z,4.16
2023-11-24T08:46:54.597Z,4.16
2023-11-24T08:49:24.658Z,4.20
2023-11-24T08:51:54.575Z,4.18
2023-11-24T08:54:24.248Z,4.20
2023-11-24T08:56:54.442Z,4.25
2023-11-24T08:59:23.720Z,4.28
2023-11-24T09:01:52.944Z,4.35
2023-11-24T09:04:23.007Z,4.48
2023-11-24T09:06:51.971Z,4.61
2023-11-24T09:09:22.003Z,4.76
2023-11-24T09:11:51.864Z,4.87
2023-11-24T09:14:22.091Z,4.97
2023-11-24T09:16:51.293Z,5.00
2023-11-24T09:19:21.440Z,4.97
2023-11-24T09:21:51.148Z,4.94
2023-11-24T09:24:22.647Z,4.91
2023-11-24T09:26:53.955Z,4.87
2023-11-24T09:29:24.483Z,4.84
2023-11-24T09:32:07.638Z,4.82
2023-11-24T09:35:19.005Z,4.83
2023-11-24T09:38:00.731Z,4.89
2023-11-24T09:41:24.781Z,4.86
2023-11-24T09:44:25.044Z,4.84
2023-11-24T09:50:42.712Z,4.96
2023-11-24T09:53:34.664Z,4.94
2023-11-24T09:56:16.611Z,4.96
2023-11-24T09:58:46.847Z,4.97
2023-11-24T10:01:22.502Z,5.00
2023-11-24T10:03:53.450Z,4.97
2023-11-24T10:06:23.857Z,4.96
2023-11-24T10:08:53.131Z,4.94
2023-11-24T10:11:28.857Z,4.91
2023-11-24T10:14:01.067Z,4.86
2023-11-24T10:16:36.111Z,4.89
2023-11-24T10:19:09.718Z,4.91
2023-11-24T10:21:43.582Z,4.94
2023-11-24T10:24:23.505Z,4.94
2023-11-24T10:26:55.044Z,4.94
2023-11-24T10:29:31.685Z,4.94
2023-11-24T10:32:40.726Z,4.94
2023-11-24T10:35:49.194Z,4.94
2023-11-24T10:38:36.317Z,5.07
2023-11-24T10:41:38.382Z,5.27
2023-11-24T10:44:24.536Z,5.50
2023-11-24T10:47:05.595Z,5.66
2023-11-24T10:50:21.265Z,6.40
2023-11-24T10:53:16.931Z,7.12
2023-11-24T10:56:07.131Z,7.08
2023-11-24T10:58:39.991Z,6.84
2023-11-24T11:01:32.941Z,6.65
2023-11-24T11:04:10.608Z,6.39
2023-11-24T11:06:57.535Z,6.18
2023-11-24T11:09:53.650Z,5.91
2023-11-24T11:16:01.300Z,5.67
2023-11-24T11:18:34.108Z,5.66
2023-11-24T11:21:14.134Z,5.65
2023-11-24T11:23:44.516Z,5.66
2023-11-24T11:26:51.002Z,5.67
2023-11-24T11:29:31.035Z,5.76
2023-11-24T11:32:08.065Z,5.76
2023-11-24T11:34:46.520Z,5.69
2023-11-24T11:37:37.815Z,5.63
2023-11-24T11:40:45.657Z,5.56
2023-11-24T11:47:25.644Z,5.41
2023-11-24T11:50:08.406Z,5.38
2023-11-24T11:52:52.944Z,5.35
2023-11-24T11:55:29.407Z,5.34
2023-11-24T11:58:05.011Z,5.35
2023-11-24T12:00:35.019Z,5.35
2023-11-24T12:03:06.038Z,5.38
2023-11-24T12:05:43.577Z,5.37
2023-11-24T12:08:34.703Z,5.32
2023-11-24T12:11:11.350Z,5.39
2023-11-24T12:13:44.209Z,5.35
2023-11-24T12:16:36.151Z,5.35
2023-11-24T12:19:14.221Z,5.31
2023-11-24T12:21:47.294Z,5.21
2023-11-24T12:24:24.707Z,5.11
2023-11-24T12:26:55.706Z,5.06
2023-11-24T12:29:27.497Z,5.00
2023-11-24T12:32:04.513Z,4.96
2023-11-24T12:34:37.200Z,4.91
2023-11-24T12:37:08.968Z,4.86
2023-11-24T12:39:41.361Z,4.82
2023-11-24T12:42:11.623Z,4.80
2023-11-24T12:44:42.337Z,4.76
2023-11-24T12:47:16.826Z,4.69
2023-11-24T12:50:02.857Z,4.63
2023-11-24T12:52:33.338Z,4.54
2023-11-24T12:55:12.350Z,4.48
2023-11-24T12:57:48.495Z,4.34
2023-11-24T13:00:27.119Z,4.27
2023-11-24T13:02:56.897Z,4.20
2023-11-24T13:05:30.201Z,4.16
2023-11-24T13:08:10.476Z,4.11
2023-11-24T13:10:41.651Z,4.11
2023-11-24T13:13:15.050Z,4.06
2023-11-24T13:15:44.387Z,4.03
2023-11-24T13:18:28.683Z,4.01
2023-11-24T13:20:58.216Z,4.00
2023-11-24T13:23:27.743Z,3.94
2023-11-24T13:25:57.329Z,3.92
2023-11-24T13:28:35.671Z,3.86
2023-11-24T13:31:09.447Z,3.85
2023-11-24T13:33:39.156Z,3.88
2023-11-24T13:36:11.640Z,3.93
2023-11-24T13:38:41.422Z,3.99
2023-11-24T13:41:12.977Z,4.00
2023-11-24T13:43:42.369Z,3.97
2023-11-24T13:46:12.913Z,3.90
2023-11-24T13:48:44.639Z,3.86
2023-11-24T13:51:13.662Z,3.76
2023-11-24T13:53:42.549Z,3.71
2023-11-24T13:56:12.102Z,3.68
2023-11-24T13:58:41.101Z,3.57
2023-11-24T14:01:10.582Z,3.52
2023-11-24T14:03:40.991Z,3.47
2023-11-24T14:06:10.523Z,3.43
2023-11-24T14:08:39.568Z,3.35
2023-11-24T14:11:08.891Z,3.32
2023-11-24T14:13:40.344Z,3.27
2023-11-24T14:16:10.016Z,3.21
2023-11-24T14:18:39.249Z,3.16
2023-11-24T14:21:08.483Z,3.11
2023-11-24T14:23:37.595Z,3.07
2023-11-24T14:26:06.912Z,3.02
2023-11-24T14:28:36.198Z,2.93
2023-11-24T14:31:06.025Z,2.89
2023-11-24T14:33:36.235Z,2.82
2023-11-24T14:36:11.018Z,2.76
2023-11-24T14:38:42.517Z,2.72
2023-11-24T14:41:16.181Z,2.67
2023-11-24T14:43:45.334Z,2.64
2023-11-24T14:46:15.890Z,2.55
2023-11-24T14:48:50.182Z,2.55
2023-11-24T14:51:21.729Z,2.47
2023-11-24T14:53:52.017Z,2.41
2023-11-24T14:56:21.086Z,2.36
2023-11-24T14:58:51.929Z,2.29
2023-11-24T15:01:24.818Z,2.21
2023-11-24T15:03:54.287Z,2.14
2023-11-24T15:06:26.487Z,2.09
2023-11-24T15:09:00.685Z,2.05
2023-11-24T15:11:38.228Z,1.98
2023-11-24T15:14:14.017Z,1.95
2023-11-24T15:16:53.836Z,1.90
2023-11-24T15:19:26.868Z,1.86
2023-11-24T15:21:57.106Z,1.81
2023-11-24T15:24:33.790Z,1.78
2023-11-24T15:27:06.972Z,1.72
2023-11-24T15:29:37.779Z,1.70
2023-11-24T15:32:10.197Z,1.68
2023-11-24T15:34:39.360Z,1.61
2023-11-24T15:37:09.501Z,1.61
2023-11-24T15:39:41.406Z,1.58
2023-11-24T15:42:15.076Z,1.54
2023-11-24T15:44:46.688Z,1.54
2023-11-24T15:47:17.005Z,1.54
2023-11-24T15:49:46.189Z,1.54
2023-11-24T15:52:15.953Z,1.58
2023-11-24T15:54:53.616Z,1.57
2023-11-24T15:57:27.045Z,1.58
2023-11-24T16:00:02.210Z,1.58
2023-11-24T16:02:40.796Z,1.60
2023-11-24T16:05:33.353Z,1.62
2023-11-24T16:08:08.252Z,1.62
2023-11-24T16:10:46.635Z,1.65
2023-11-24T16:13:19.954Z,1.68
2023-11-24T16:15:49.378Z,1.71
2023-11-24T16:18:26.512Z,1.71
2023-11-24T16:21:01.551Z,1.72
2023-11-24T16:23:30.620Z,1.71
2023-11-24T16:25:59.664Z,1.72
2023-11-24T16:28:28.753Z,1.74
2023-11-24T16:30:58.017Z,1.74
2023-11-24T16:33:34.068Z,1.74
2023-11-24T16:36:05.826Z,1.77
2023-11-24T16:38:37.681Z,1.78
2023-11-24T16:41:07.531Z,1.77
2023-11-24T16:43:36.628Z,1.77
2023-11-24T16:46:09.792Z,1.75
2023-11-24T16:48:41.453Z,1.74
2023-11-24T16:51:10.889Z,1.70
2023-11-24T16:53:44.155Z,1.64
2023-11-24T16:56:14.077Z,1.57
2023-11-24T16:58:43.170Z,1.53
2023-11-24T17:01:12.954Z,1.44
2023-11-24T17:03:44.057Z,1.39
2023-11-24T17:06:14.451Z,1.33
2023-11-24T17:08:43.410Z,1.29
2023-11-24T17:11:12.653Z,1.22
2023-11-24T17:13:44.576Z,1.15
2023-11-24T17:16:15.244Z,1.09
2023-11-24T17:18:44.266Z,1.03
2023-11-24T17:21:13.578Z,0.98
2023-11-24T17:23:43.551Z,0.92
2023-11-24T17:26:13.283Z,0.88
2023-11-24T17:28:46.602Z,0.84
2023-11-24T17:31:16.308Z,0.79
2023-11-24T17:33:45.266Z,0.72
2023-11-24T17:36:14.887Z,0.67
2023-11-24T17:38:45.041Z,0.65
2023-11-24T17:41:15.211Z,0.60
2023-11-24T17:43:44.571Z,0.57
2023-11-24T17:46:14.047Z,0.50
2023-11-24T17:48:45.332Z,0.49
2023-11-24T17:51:17.529Z,0.46
2023-11-24T17:53:46.559Z,0.42
2023-11-24T17:56:15.612Z,0.39
2023-11-24T17:58:44.957Z,0.34
2023-11-24T18:01:15.119Z,0.36
2023-11-24T18:03:44.532Z,0.34
2023-11-24T18:06:13.805Z,0.30
2023-11-24T18:08:43.219Z,0.33
2023-11-24T18:11:12.613Z,0.33
2023-11-24T18:13:41.566Z,0.30
2023-11-24T18:16:11.541Z,0.30
2023-11-24T18:18:40.629Z,0.32
2023-11-24T18:21:09.873Z,0.32
2023-11-24T18:23:39.387Z,0.32
2023-11-24T18:26:08.602Z,0.36
2023-11-24T18:28:37.797Z,0.39
2023-11-24T18:31:08.954Z,0.43
2023-11-24T18:33:39.508Z,0.46
2023-11-24T18:36:11.032Z,0.50
2023-11-24T18:38:40.129Z,0.53
2023-11-24T18:41:14.612Z,0.57
2023-11-24T18:43:47.232Z,0.60
2023-11-24T18:46:17.114Z,0.60
2023-11-24T18:48:46.397Z,0.64
2023-11-24T18:51:15.800Z,0.65
2023-11-24T18:53:46.723Z,0.68
2023-11-24T18:56:21.357Z,0.67
2023-11-24T18:58:50.576Z,0.71
2023-11-24T19:01:19.839Z,0.74
2023-11-24T19:03:48.842Z,0.79
2023-11-24T19:06:18.869Z,0.82
2023-11-24T19:08:51.614Z,0.87
2023-11-24T19:11:23.847Z,0.93
2023-11-24T19:13:56.762Z,0.98
2023-11-24T19:16:27.700Z,0.98
2023-11-24T19:18:58.167Z,1.06
2023-11-24T19:21:28.841Z,1.07
2023-11-24T19:23:59.097Z,1.10
2023-11-24T19:26:30.408Z,1.13
2023-11-24T19:29:05.840Z,1.16
2023-11-24T19:31:40.311Z,1.18
2023-11-24T19:34:09.749Z,1.23
2023-11-24T19:36:38.909Z,1.27
2023-11-24T19:39:10.881Z,1.29
2023-11-24T19:41:41.210Z,1.33
2023-11-24T19:44:10.585Z,1.34
2023-11-24T19:46:39.798Z,1.39
2023-11-24T19:49:10.728Z,1.39
2023-11-24T19:51:40.509Z,1.44
2023-11-24T19:54:09.779Z,1.44
2023-11-24T19:56:40.359Z,1.46
2023-11-24T19:59:09.834Z,1.47
2023-11-24T20:01:39.566Z,1.47
2023-11-24T20:04:08.843Z,1.51
2023-11-24T20:06:38.308Z,1.50
2023-11-24T20:09:12.016Z,1.54
2023-11-24T20:11:41.158Z,1.58
2023-11-24T20:14:10.640Z,1.61
2023-11-24T20:16:39.887Z,1.62
2023-11-24T20:19:12.010Z,1.65
2023-11-24T20:21:41.376Z,1.67
2023-11-24T20:24:12.406Z,1.70
2023-11-24T20:26:42.281Z,1.72
2023-11-24T20:29:11.468Z,1.75
2023-11-24T20:31:41.357Z,1.79
2023-11-24T20:34:10.625Z,1.81
2023-11-24T20:36:39.552Z,1.82
2023-11-24T20:39:09.108Z,1.85
2023-11-24T20:41:44.029Z,1.89
2023-11-24T20:44:17.214Z,1.89
2023-11-24T20:46:50.748Z,1.90
2023-11-24T20:49:20.839Z,1.93
2023-11-24T20:51:52.535Z,1.93
2023-11-24T20:54:22.115Z,1.95
2023-11-24T20:56:59.428Z,1.96
2023-11-24T20:59:30.868Z,1.96
2023-11-24T21:02:00.466Z,1.99
2023-11-24T21:04:30.185Z,1.99
2023-11-24T21:07:00.953Z,1.99
2023-11-24T21:09:31.420Z,2.02
2023-11-24T21:12:02.727Z,2.00
2023-11-24T21:14:31.948Z,2.02
2023-11-24T21:17:01.485Z,2.00
2023-11-24T21:19:30.928Z,1.98
2023-11-24T21:22:00.764Z,1.93
2023-11-24T21:24:32.067Z,1.90
2023-11-24T21:27:03.039Z,1.88
2023-11-24T21:29:35.305Z,1.85
2023-11-24T21:32:04.763Z,1.81
2023-11-24T21:34:36.811Z,1.79
2023-11-24T21:37:06.652Z,1.77
2023-11-24T21:39:37.116Z,1.75
2023-11-24T21:42:07.050Z,1.72
2023-11-24T21:44:38.450Z,1.74
2023-11-24T21:47:07.896Z,1.71
2023-11-24T21:49:38.361Z,1.72
2023-11-24T21:52:08.241Z,1.72
2023-11-24T21:54:37.940Z,1.74
2023-11-24T21:57:07.469Z,1.77
2023-11-24T21:59:36.685Z,1.78
2023-11-24T22:02:06.643Z,1.79
2023-11-24T22:04:36.695Z,1.79
2023-11-24T22:07:06.634Z,1.81
2023-11-24T22:09:35.870Z,1.82
2023-11-24T22:12:09.120Z,1.82
2023-11-24T22:14:39.230Z,1.85
2023-11-24T22:17:08.666Z,1.83
2023-11-24T22:19:39.273Z,1.86
2023-11-24T22:22:08.933Z,1.86
2023-11-24T22:24:38.243Z,1.86
2023-11-24T22:27:07.717Z,1.88
2023-11-24T22:29:37.660Z,1.88
2023-11-24T22:32:09.477Z,1.85
2023-11-24T22:34:38.715Z,1.85
2023-11-24T22:37:08.420Z,1.86
2023-11-24T22:39:39.858Z,1.85
2023-11-24T22:42:10.005Z,1.83
2023-11-24T22:44:39.932Z,1.83
2023-11-24T22:47:10.062Z,1.83
2023-11-24T22:49:39.395Z,1.82
2023-11-24T22:52:11.513Z,1.81
2023-11-24T22:54:41.272Z,1.79
2023-11-24T22:57:10.650Z,1.79
2023-11-24T22:59:40.059Z,1.81
2023-11-24T23:02:09.555Z,1.79
2023-11-24T23:04:40.830Z,1.79
2023-11-24T23:07:10.106Z,1.78
2023-11-24T23:09:39.625Z,1.81
2023-11-24T23:12:10.986Z,1.81
2023-11-24T23:14:40.024Z,1.82
2023-11-24T23:17:09.857Z,1.78
2023-11-24T23:19:41.020Z,1.78
2023-11-24T23:22:13.143Z,1.81
2023-11-24T23:24:47.869Z,1.79
2023-11-24T23:27:18.223Z,1.81
2023-11-24T23:29:47.276Z,1.82
2023-11-24T23:32:16.963Z,1.83
2023-11-24T23:34:48.350Z,1.83
2023-11-24T23:37:17.404Z,1.83
2023-11-24T23:39:47.240Z,1.86
2023-11-24T23:42:17.739Z,1.83
2023-11-24T23:44:46.656Z,1.86
2023-11-24T23:47:15.848Z,1.86
2023-11-24T23:49:45.023Z,1.83
2023-11-24T23:52:14.395Z,1.88
2023-11-24T23:54:45.937Z,1.88
2023-11-24T23:57:15.287Z,1.86
2023-11-24T23:59:45.059Z,1.88
